Overview Statistics Trail Chart Weather Telemetry Raw packets
 

This is the latest recevied weather packets stored in our database for station/object XE2AD-5. If no packets are shown the sender has not sent any weather packets the latest 10 day(s).

<< 2 3 4 5 6 7 8 >>
Time Temp. Humidity Pressure Rain* Wind** Luminosity Snow
1777583719 30° C 17% 802.6 hPa - - - -
1777580419 29.44° C 18% 803.2 hPa - - - -
1777577118 28.89° C 20% 804.2 hPa - - - -
1777573818 28.33° C 22% 804.9 hPa - - - -
1777570519 28.33° C 25% 805.6 hPa - - - -
1777567218 27.78° C 26% 806.2 hPa - - - -
1777563918 27.22° C 24% 806.4 hPa - - - -
1777560617 27.22° C 24% 806.5 hPa - - - -
1777557317 27.78° C 24% 806.2 hPa - - - -
1777554017 27.78° C 24% 805.7 hPa - - - -
1777550717 28.33° C 23% 805.2 hPa - - - -
1777547417 28.33° C 22% 804.9 hPa - - - -
1777544117 28.89° C 22% 805 hPa - - - -
1777540817 28.89° C 23% 805.2 hPa - - - -
1777537516 29.44° C 23% 805.2 hPa - - - -
1777534216 29.44° C 22% 805.5 hPa - - - -
1777530916 30° C 22% 805.8 hPa - - - -
1777527616 30° C 21% 806.4 hPa - - - -
1777524316 30° C 20% 805.7 hPa - - - -
1777521015 30° C 19% 805.4 hPa - - - -
1777517715 30.56° C 18% 804.8 hPa - - - -
1777514415 30.56° C 22% 804.3 hPa - - - -
1777511115 30.56° C 19% 804.1 hPa - - - -
1777507815 30.56° C 20% 803.8 hPa - - - -
1777504515 30.56° C 20% 804 hPa - - - -

* Rain since midnight (hover to see other rain measurements)
** Current wind speed in m/s (hover to see current wind gust speed)